Time;durP1;ratioP1;P1;durP2;ratioP2;P2;SDS_P1;SDS_P2;PMS_P1;PMS_P2;Temp;Humidity;BMP_temperature;BMP_pressure;BME280_temperature;BME280_humidity;BME280_pressure;Samples;Min_cycle;Max_cycle;Signal;HPM_P1;HPM_P2
2023/09/17 00:02:14;;;;;;;9.35;8.43;;;;;;;;;;4959869;28;21335;-89
2023/09/17 00:04:43;;;;;;;9.20;8.15;;;;;;;;;;4977202;28;20214;-89
2023/09/17 00:07:10;;;;;;;10.50;8.45;;;;;;;;;;4976436;28;20253;-90
2023/09/17 00:09:38;;;;;;;9.90;8.90;;;;;;;;;;4978004;28;20225;-89
2023/09/17 00:12:05;;;;;;;11.57;8.80;;;;;;;;;;4977078;28;20281;-89
2023/09/17 00:14:33;;;;;;;9.73;8.73;;;;;;;;;;4976209;28;20281;-89
2023/09/17 00:17:00;;;;;;;9.20;8.38;;;;;;;;;;4977471;28;20289;-88
2023/09/17 00:19:27;;;;;;;10.07;8.35;;;;;;;;;;4976814;28;20573;-90
2023/09/17 00:21:57;;;;;;;9.27;8.07;;;;;;;;;;4975990;28;20269;-89
2023/09/17 00:24:24;;;;;;;10.23;8.40;;;;;;;;;;4975694;28;20205;-89
2023/09/17 00:26:52;;;;;;;10.20;9.15;;;;;;;;;;4976539;28;20225;-89
2023/09/17 00:29:19;;;;;;;10.52;9.43;;;;;;;;;;4976181;28;20238;-89
2023/09/17 00:31:47;;;;;;;11.05;8.63;;;;;;;;;;4975925;28;20198;-89
2023/09/17 00:34:14;;;;;;;9.75;8.75;;;;;;;;;;4975339;28;20665;-90
2023/09/17 00:36:41;;;;;;;8.95;8.05;;;;;;;;;;4976824;28;20603;-89
2023/09/17 00:39:10;;;;;;;11.38;8.25;;;;;;;;;;4975948;28;20297;-89
2023/09/17 00:41:37;;;;;;;8.93;7.93;;;;;;;;;;4976402;28;20286;-88
2023/09/17 00:44:04;;;;;;;11.80;8.38;;;;;;;;;;4976846;28;20214;-89
2023/09/17 00:46:32;;;;;;;13.27;7.85;;;;;;;;;;4975986;28;20201;-89
2023/09/17 00:49:00;;;;;;;9.02;7.95;;;;;;;;;;4976216;28;20198;-89
2023/09/17 00:51:27;;;;;;;9.77;8.35;;;;;;;;;;4975304;28;20241;-89
2023/09/17 00:53:56;;;;;;;11.88;7.57;;;;;;;;;;4975934;28;20273;-89
2023/09/17 00:56:25;;;;;;;10.00;7.57;;;;;;;;;;4975322;28;20254;-89
2023/09/17 00:58:53;;;;;;;10.88;7.40;;;;;;;;;;4976343;28;20194;-88
2023/09/17 01:01:20;;;;;;;10.23;7.78;;;;;;;;;;4975247;28;20211;-89
2023/09/17 01:03:47;;;;;;;9.30;7.10;;;;;;;;;;4975100;28;20681;-89
2023/09/17 01:06:15;;;;;;;9.00;7.30;;;;;;;;;;4975017;28;20221;-89
2023/09/17 01:08:42;;;;;;;9.48;7.03;;;;;;;;;;4975623;28;20290;-89
2023/09/17 01:11:10;;;;;;;8.00;7.20;;;;;;;;;;4975295;28;20222;-89
2023/09/17 01:13:40;;;;;;;8.73;7.35;;;;;;;;;;4976957;28;20191;-89
2023/09/17 01:16:08;;;;;;;8.65;6.85;;;;;;;;;;4975958;28;20233;-89
2023/09/17 01:18:35;;;;;;;10.75;7.63;;;;;;;;;;4975297;28;20627;-90
2023/09/17 01:21:07;;;;;;;8.88;6.75;;;;;;;;;;4976429;28;20234;-89
2023/09/17 01:23:36;;;;;;;8.18;7.18;;;;;;;;;;4974986;28;20677;-89
2023/09/17 01:26:08;;;;;;;9.23;7.20;;;;;;;;;;4975143;28;20191;-88
2023/09/17 01:28:37;;;;;;;7.90;6.40;;;;;;;;;;4975479;28;20233;-89
2023/09/17 01:31:05;;;;;;;10.20;7.35;;;;;;;;;;4975012;28;20223;-89
2023/09/17 01:33:33;;;;;;;7.43;6.22;;;;;;;;;;4975018;28;20198;-89
2023/09/17 01:36:05;;;;;;;7.47;6.65;;;;;;;;;;4974771;28;20277;-89
2023/09/17 01:38:33;;;;;;;9.00;6.68;;;;;;;;;;4975069;28;20200;-89
2023/09/17 01:41:02;;;;;;;7.10;6.40;;;;;;;;;;4986289;28;20285;-89
2023/09/17 01:43:30;;;;;;;7.72;6.35;;;;;;;;;;4994068;28;20198;-88
2023/09/17 01:45:59;;;;;;;7.90;6.45;;;;;;;;;;4993947;28;20225;-89
2023/09/17 01:48:27;;;;;;;9.18;6.40;;;;;;;;;;4994599;28;20297;-90
2023/09/17 01:50:56;;;;;;;10.68;6.25;;;;;;;;;;4994566;28;20229;-89
2023/09/17 01:53:23;;;;;;;7.60;6.45;;;;;;;;;;4994938;28;20241;-90
2023/09/17 01:55:52;;;;;;;9.00;6.05;;;;;;;;;;4994099;28;20237;-89
2023/09/17 01:58:21;;;;;;;7.65;6.47;;;;;;;;;;4994540;28;20190;-89
2023/09/17 02:00:49;;;;;;;6.82;5.80;;;;;;;;;;4994924;28;20197;-90
2023/09/17 02:03:18;;;;;;;6.80;5.95;;;;;;;;;;4994430;28;20615;-90
2023/09/17 02:05:45;;;;;;;8.10;5.65;;;;;;;;;;4994113;28;20251;-89
2023/09/17 02:08:12;;;;;;;8.38;5.60;;;;;;;;;;4993670;28;20252;-90
2023/09/17 02:10:40;;;;;;;9.82;5.88;;;;;;;;;;4993653;28;20665;-88
2023/09/17 02:13:07;;;;;;;8.65;6.10;;;;;;;;;;4993876;28;20233;-90
2023/09/17 02:15:35;;;;;;;7.32;5.68;;;;;;;;;;4994321;28;20194;-91
2023/09/17 02:18:03;;;;;;;8.45;5.65;;;;;;;;;;4977308;28;20241;-89
2023/09/17 02:20:32;;;;;;;8.57;5.63;;;;;;;;;;4995076;28;20236;-90
2023/09/17 02:22:59;;;;;;;8.43;5.50;;;;;;;;;;4995444;28;20328;-90
2023/09/17 02:25:26;;;;;;;8.23;5.40;;;;;;;;;;4994848;28;20281;-89
2023/09/17 02:27:54;;;;;;;6.35;5.57;;;;;;;;;;4994765;28;20218;-90
2023/09/17 02:30:22;;;;;;;9.00;5.88;;;;;;;;;;4995371;28;20225;-89
2023/09/17 02:32:49;;;;;;;6.55;5.47;;;;;;;;;;4994054;28;20193;-89
2023/09/17 02:35:16;;;;;;;7.65;5.55;;;;;;;;;;4992856;28;20240;-90
2023/09/17 02:37:45;;;;;;;6.18;5.57;;;;;;;;;;4994430;28;20241;-90
2023/09/17 02:40:13;;;;;;;6.93;5.22;;;;;;;;;;4993714;28;20272;-89
2023/09/17 02:42:40;;;;;;;7.35;5.05;;;;;;;;;;4993808;28;20650;-90
2023/09/17 02:45:08;;;;;;;7.35;4.97;;;;;;;;;;4993657;28;20634;-90
2023/09/17 02:47:36;;;;;;;5.90;4.82;;;;;;;;;;4994335;28;20194;-91
2023/09/17 02:50:04;;;;;;;6.28;5.00;;;;;;;;;;4993484;28;20197;-89
2023/09/17 02:52:32;;;;;;;5.15;4.47;;;;;;;;;;4993228;28;20684;-89
2023/09/17 02:55:00;;;;;;;6.90;4.88;;;;;;;;;;4993811;28;20217;-90
2023/09/17 02:57:27;;;;;;;5.70;5.10;;;;;;;;;;4996990;28;20202;-89
2023/09/17 02:59:55;;;;;;;5.72;4.85;;;;;;;;;;4997624;28;20285;-89
2023/09/17 03:02:22;;;;;;;6.57;5.15;;;;;;;;;;4996878;28;20746;-89
2023/09/17 03:04:50;;;;;;;6.57;4.75;;;;;;;;;;4997669;28;20669;-89
2023/09/17 03:07:18;;;;;;;5.45;4.70;;;;;;;;;;4997351;28;20656;-89
2023/09/17 03:09:46;;;;;;;6.20;4.88;;;;;;;;;;4997039;28;20202;-89
2023/09/17 03:12:14;;;;;;;5.03;4.53;;;;;;;;;;4998228;28;20281;-89
2023/09/17 03:14:41;;;;;;;6.15;4.90;;;;;;;;;;4997586;28;20630;-89
2023/09/17 03:17:09;;;;;;;7.15;4.95;;;;;;;;;;4996604;28;20218;-89
2023/09/17 03:19:36;;;;;;;6.20;5.00;;;;;;;;;;4997690;28;20205;-89
2023/09/17 03:22:03;;;;;;;8.07;4.60;;;;;;;;;;4997225;28;20676;-89
2023/09/17 03:24:31;;;;;;;5.47;4.70;;;;;;;;;;4996942;28;20285;-89
2023/09/17 03:26:58;;;;;;;6.35;4.82;;;;;;;;;;4997560;28;20289;-89
2023/09/17 03:29:26;;;;;;;5.78;4.70;;;;;;;;;;4996866;28;20268;-88
2023/09/17 03:31:54;;;;;;;5.18;4.68;;;;;;;;;;4997702;28;20621;-89
2023/09/17 03:34:21;;;;;;;6.57;4.60;;;;;;;;;;4996274;28;20289;-89
2023/09/17 03:36:48;;;;;;;6.88;4.55;;;;;;;;;;4996384;28;20640;-90
2023/09/17 03:39:15;;;;;;;4.97;4.47;;;;;;;;;;4996206;28;20225;-89
2023/09/17 03:41:43;;;;;;;6.32;4.80;;;;;;;;;;4996577;28;20374;-89
2023/09/17 03:44:10;;;;;;;5.57;4.85;;;;;;;;;;4997038;28;20229;-88
2023/09/17 03:46:39;;;;;;;5.40;4.90;;;;;;;;;;4996424;28;20197;-89
2023/09/17 03:49:08;;;;;;;4.75;4.35;;;;;;;;;;4996133;28;20202;-90
2023/09/17 03:51:36;;;;;;;5.75;4.45;;;;;;;;;;4997101;28;20260;-89
2023/09/17 03:54:04;;;;;;;5.47;4.45;;;;;;;;;;4995202;28;20243;-89
2023/09/17 03:56:31;;;;;;;5.60;4.10;;;;;;;;;;4997243;28;20186;-90
2023/09/17 03:58:58;;;;;;;5.60;4.32;;;;;;;;;;4996429;28;20761;-89
2023/09/17 04:01:25;;;;;;;4.72;4.22;;;;;;;;;;4995344;28;20206;-89
2023/09/17 04:03:54;;;;;;;5.13;4.10;;;;;;;;;;4996743;28;20240;-89
2023/09/17 04:06:21;;;;;;;5.38;3.80;;;;;;;;;;4996707;28;20190;-89
2023/09/17 04:08:49;;;;;;;5.18;3.97;;;;;;;;;;4996311;28;20225;-88
2023/09/17 04:11:17;;;;;;;4.30;3.60;;;;;;;;;;4996845;28;20233;-89
2023/09/17 04:13:45;;;;;;;4.03;3.58;;;;;;;;;;4996475;28;20220;-89
2023/09/17 04:16:16;;;;;;;4.57;4.10;;;;;;;;;;4995872;28;20190;-90
2023/09/17 04:18:44;;;;;;;3.55;3.22;;;;;;;;;;4996452;28;20260;-89
2023/09/17 04:21:13;;;;;;;6.07;4.10;;;;;;;;;;4997102;28;20229;-90
2023/09/17 04:23:41;;;;;;;4.57;3.83;;;;;;;;;;4996339;28;20681;-89
2023/09/17 04:26:10;;;;;;;4.50;3.70;;;;;;;;;;4996191;28;20296;-89
2023/09/17 04:28:38;;;;;;;6.15;3.65;;;;;;;;;;4997056;28;20209;-90
2023/09/17 04:31:06;;;;;;;6.07;4.05;;;;;;;;;;4995720;28;20730;-89
2023/09/17 04:33:33;;;;;;;4.07;3.60;;;;;;;;;;4996912;28;20658;-90
2023/09/17 04:36:03;;;;;;;5.00;3.90;;;;;;;;;;4996202;28;20748;-89
2023/09/17 04:38:32;;;;;;;5.75;3.88;;;;;;;;;;4995678;28;20647;-89
2023/09/17 04:40:59;;;;;;;5.18;3.72;;;;;;;;;;4996358;28;20639;-89
2023/09/17 04:43:26;;;;;;;4.03;3.38;;;;;;;;;;4997986;28;20233;-89
2023/09/17 04:45:54;;;;;;;5.07;3.47;;;;;;;;;;4997762;28;20194;-89
2023/09/17 04:48:21;;;;;;;5.10;3.47;;;;;;;;;;4998081;28;20201;-90
2023/09/17 04:50:48;;;;;;;4.78;3.60;;;;;;;;;;4997014;28;20289;-90
2023/09/17 04:53:16;;;;;;;5.82;3.30;;;;;;;;;;4997458;28;20233;-90
2023/09/17 04:55:45;;;;;;;4.05;3.65;;;;;;;;;;4996614;28;20240;-90
2023/09/17 04:58:13;;;;;;;4.75;3.75;;;;;;;;;;4995435;28;20205;-91
2023/09/17 05:00:41;;;;;;;5.50;3.28;;;;;;;;;;4995677;28;20190;-89
2023/09/17 05:03:08;;;;;;;3.83;3.42;;;;;;;;;;4994787;28;20403;-91
2023/09/17 05:05:35;;;;;;;6.15;3.45;;;;;;;;;;4995619;28;20281;-91
2023/09/17 05:08:03;;;;;;;4.32;3.50;;;;;;;;;;4995536;28;20233;-88
2023/09/17 05:10:30;;;;;;;4.57;3.58;;;;;;;;;;4995436;28;20213;-89
2023/09/17 05:12:59;;;;;;;4.15;3.70;;;;;;;;;;4996393;28;20214;-89
2023/09/17 05:15:30;;;;;;;4.47;4.07;;;;;;;;;;4994799;28;20204;-89
2023/09/17 05:17:59;;;;;;;4.70;3.92;;;;;;;;;;4995866;28;20228;-89
2023/09/17 05:20:26;;;;;;;4.43;4.00;;;;;;;;;;4993192;28;20228;-86
2023/09/17 05:22:53;;;;;;;4.50;3.88;;;;;;;;;;4996301;28;20232;-87
2023/09/17 05:25:20;;;;;;;5.75;4.13;;;;;;;;;;4994262;28;20225;-88
2023/09/17 05:27:47;;;;;;;6.60;4.55;;;;;;;;;;4994295;28;20246;-88
2023/09/17 05:30:17;;;;;;;5.82;4.30;;;;;;;;;;4996108;28;20229;-90
2023/09/17 05:32:44;;;;;;;4.95;4.30;;;;;;;;;;4994412;28;20202;-88
2023/09/17 05:35:11;;;;;;;5.28;4.30;;;;;;;;;;4994389;28;20337;-88
2023/09/17 05:37:39;;;;;;;4.47;4.07;;;;;;;;;;4994442;28;20201;-87
2023/09/17 05:40:06;;;;;;;6.63;4.20;;;;;;;;;;4997776;28;20237;-89
2023/09/17 05:42:33;;;;;;;4.88;4.05;;;;;;;;;;4997369;28;20194;-88
2023/09/17 05:45:01;;;;;;;4.82;4.13;;;;;;;;;;4999118;28;20233;-88
2023/09/17 05:47:29;;;;;;;5.50;4.40;;;;;;;;;;4996107;28;20639;-88
2023/09/17 05:49:58;;;;;;;6.38;4.63;;;;;;;;;;4995802;28;20225;-89
2023/09/17 05:52:25;;;;;;;6.93;4.65;;;;;;;;;;4996037;28;20205;-85
2023/09/17 05:54:53;;;;;;;7.10;4.38;;;;;;;;;;4994731;28;20230;-90
2023/09/17 05:57:20;;;;;;;5.28;4.70;;;;;;;;;;4994356;28;20269;-90
2023/09/17 05:59:47;;;;;;;4.90;4.30;;;;;;;;;;4996210;28;20243;-90
2023/09/17 06:02:14;;;;;;;5.50;4.45;;;;;;;;;;4995295;28;20280;-91
2023/09/17 06:04:43;;;;;;;7.10;4.65;;;;;;;;;;4995651;28;20231;-88
2023/09/17 06:07:10;;;;;;;5.18;4.40;;;;;;;;;;4995050;28;20221;-88
2023/09/17 06:09:37;;;;;;;5.75;4.22;;;;;;;;;;4997147;28;20221;-89
2023/09/17 06:12:06;;;;;;;6.53;4.22;;;;;;;;;;4994182;28;20236;-89
2023/09/17 06:14:33;;;;;;;6.07;4.30;;;;;;;;;;4993801;28;20198;-89
2023/09/17 06:17:00;;;;;;;5.30;4.00;;;;;;;;;;4994332;28;20209;-89
2023/09/17 06:19:29;;;;;;;4.35;3.90;;;;;;;;;;4994879;28;20209;-88
2023/09/17 06:21:57;;;;;;;6.05;4.10;;;;;;;;;;4996301;28;20202;-89
2023/09/17 06:24:24;;;;;;;6.45;4.40;;;;;;;;;;4995197;28;20284;-90
2023/09/17 06:26:52;;;;;;;6.97;4.30;;;;;;;;;;4993568;28;20669;-90
2023/09/17 06:29:19;;;;;;;5.53;4.63;;;;;;;;;;4993938;28;20680;-90
2023/09/17 06:31:47;;;;;;;5.20;4.50;;;;;;;;;;4995996;28;20280;-90
2023/09/17 06:34:14;;;;;;;5.78;4.28;;;;;;;;;;4997329;28;20293;-92
2023/09/17 06:36:41;;;;;;;6.22;4.60;;;;;;;;;;4997924;28;20260;-90
2023/09/17 06:39:11;;;;;;;9.48;4.90;;;;;;;;;;4997566;28;20229;-91
2023/09/17 06:41:39;;;;;;;8.32;5.15;;;;;;;;;;4997107;28;20222;-92
2023/09/17 06:44:06;;;;;;;7.43;5.05;;;;;;;;;;4998106;28;20325;-88
2023/09/17 06:46:34;;;;;;;5.78;4.80;;;;;;;;;;4998813;28;20245;-90
2023/09/17 06:49:03;;;;;;;5.93;4.85;;;;;;;;;;4982463;28;20225;-90
2023/09/17 06:51:30;;;;;;;5.80;4.35;;;;;;;;;;4998693;28;20225;-89
2023/09/17 06:54:06;;;;;;;6.90;4.55;;;;;;;;;;4980952;28;20244;-90
2023/09/17 06:56:35;;;;;;;5.68;4.50;;;;;;;;;;4999763;28;20198;-90
2023/09/17 06:59:03;;;;;;;6.25;4.47;;;;;;;;;;4998646;28;20280;-90
2023/09/17 07:01:30;;;;;;;6.78;4.47;;;;;;;;;;4998136;28;20238;-89
2023/09/17 07:03:58;;;;;;;7.95;4.65;;;;;;;;;;4999865;28;20608;-90
2023/09/17 07:06:25;;;;;;;6.57;4.32;;;;;;;;;;4998721;28;20198;-91
2023/09/17 07:08:54;;;;;;;11.32;4.38;;;;;;;;;;4999173;28;20567;-90
2023/09/17 07:11:21;;;;;;;6.53;4.55;;;;;;;;;;4998824;28;20201;-91
2023/09/17 07:13:50;;;;;;;5.78;3.97;;;;;;;;;;4998388;28;20292;-88
2023/09/17 07:16:18;;;;;;;7.22;3.95;;;;;;;;;;4998781;28;20222;-90
2023/09/17 07:18:46;;;;;;;6.25;4.13;;;;;;;;;;4998918;28;20205;-90
2023/09/17 07:21:13;;;;;;;4.03;3.40;;;;;;;;;;4998354;28;20208;-90
2023/09/17 07:23:40;;;;;;;3.95;3.55;;;;;;;;;;4997715;28;20229;-90
2023/09/17 07:26:09;;;;;;;4.55;3.38;;;;;;;;;;4998197;28;20221;-92
2023/09/17 07:28:36;;;;;;;5.85;3.40;;;;;;;;;;4998073;28;20194;-91
2023/09/17 07:31:10;;;;;;;3.83;3.40;;;;;;;;;;4998275;28;20707;-92
2023/09/17 07:33:39;;;;;;;4.05;3.65;;;;;;;;;;4999362;28;20202;-91
2023/09/17 07:36:06;;;;;;;4.38;2.95;;;;;;;;;;4999471;28;20639;-91
2023/09/17 07:38:33;;;;;;;5.28;3.08;;;;;;;;;;4998508;28;20200;-91
2023/09/17 07:41:01;;;;;;;4.93;3.00;;;;;;;;;;4997958;28;20248;-91
2023/09/17 07:43:28;;;;;;;3.42;2.78;;;;;;;;;;4997159;28;20257;-90
2023/09/17 07:45:55;;;;;;;6.05;2.95;;;;;;;;;;4997693;28;20269;-91
2023/09/17 07:48:25;;;;;;;4.03;2.70;;;;;;;;;;4997806;28;20198;-91
2023/09/17 07:51:01;;;;;;;5.15;2.55;;;;;;;;;;4997317;28;20240;-92
2023/09/17 07:53:29;;;;;;;3.35;2.33;;;;;;;;;;4997418;28;20627;-91
2023/09/17 07:55:57;;;;;;;2.67;2.38;;;;;;;;;;4997616;28;20293;-90
2023/09/17 07:58:24;;;;;;;3.85;2.47;;;;;;;;;;5004920;28;20621;-91
2023/09/17 08:00:51;;;;;;;5.15;2.30;;;;;;;;;;4997389;28;20630;-90
2023/09/17 08:03:19;;;;;;;3.67;2.70;;;;;;;;;;4997548;28;20206;-90
2023/09/17 08:05:49;;;;;;;3.17;2.38;;;;;;;;;;4996963;28;20268;-87
2023/09/17 08:08:16;;;;;;;4.53;2.25;;;;;;;;;;4997616;28;20202;-90
2023/09/17 08:10:43;;;;;;;3.17;2.50;;;;;;;;;;4997447;28;20228;-90
2023/09/17 08:13:11;;;;;;;4.05;2.25;;;;;;;;;;4998257;28;20212;-90
2023/09/17 08:15:39;;;;;;;3.45;2.28;;;;;;;;;;4997995;28;20893;-92
2023/09/17 08:18:06;;;;;;;3.13;2.30;;;;;;;;;;4998838;28;20202;-91
2023/09/17 08:20:33;;;;;;;4.88;3.45;;;;;;;;;;4997518;28;20229;-91
2023/09/17 08:23:03;;;;;;;5.60;3.65;;;;;;;;;;5001044;28;20194;-91
2023/09/17 08:25:33;;;;;;;4.35;3.63;;;;;;;;;;5000492;28;20217;-94
2023/09/17 08:28:00;;;;;;;3.70;2.90;;;;;;;;;;4999726;28;20198;-92
2023/09/17 08:30:27;;;;;;;8.20;2.60;;;;;;;;;;4997783;28;20206;-96
2023/09/17 08:32:57;;;;;;;4.30;2.92;;;;;;;;;;4977658;28;20194;-92
2023/09/17 08:35:24;;;;;;;5.80;3.25;;;;;;;;;;4983915;28;20213;-92
2023/09/17 08:37:52;;;;;;;5.78;3.17;;;;;;;;;;4977373;28;20194;-93
2023/09/17 08:40:24;;;;;;;3.80;2.92;;;;;;;;;;4978344;28;20194;-93
2023/09/17 08:42:52;;;;;;;5.38;3.00;;;;;;;;;;4979531;28;20209;-93
2023/09/17 08:45:20;;;;;;;4.38;3.13;;;;;;;;;;4978000;28;20261;-94
2023/09/17 08:47:48;;;;;;;5.28;2.90;;;;;;;;;;4978017;28;20227;-93
2023/09/17 08:50:15;;;;;;;4.20;2.85;;;;;;;;;;4977290;28;20233;-93
2023/09/17 08:52:50;;;;;;;4.63;2.45;;;;;;;;;;4977458;28;20235;-94
2023/09/17 08:55:19;;;;;;;6.15;2.40;;;;;;;;;;4976536;28;20233;-92
2023/09/17 08:57:50;;;;;;;2.55;2.00;;;;;;;;;;4643012;28;10000594;-92
2023/09/17 09:00:18;;;;;;;5.20;2.60;;;;;;;;;;4992124;28;20564;-96
2023/09/17 09:02:48;;;;;;;5.22;2.38;;;;;;;;;;4978029;28;20603;-95
2023/09/17 09:05:15;;;;;;;2.10;1.90;;;;;;;;;;4975777;28;20308;-96
2023/09/17 09:07:43;;;;;;;3.80;2.10;;;;;;;;;;4984330;28;20213;-95
2023/09/17 09:10:11;;;;;;;4.57;2.08;;;;;;;;;;4997200;28;20197;-88
2023/09/17 09:12:39;;;;;;;6.18;2.08;;;;;;;;;;4995971;28;20206;-90
2023/09/17 09:15:10;;;;;;;3.40;2.05;;;;;;;;;;4996251;28;20289;-91
2023/09/17 09:17:38;;;;;;;2.85;1.80;;;;;;;;;;4991714;28;20206;-90
2023/09/17 09:20:06;;;;;;;2.92;2.00;;;;;;;;;;4976968;28;20638;-91
2023/09/17 09:22:33;;;;;;;3.38;2.15;;;;;;;;;;4978681;28;20214;-91
2023/09/17 09:25:01;;;;;;;2.88;2.35;;;;;;;;;;4980405;28;20257;-91
2023/09/17 09:27:29;;;;;;;4.22;1.90;;;;;;;;;;4983797;28;20246;-94
2023/09/17 09:30:14;;;;;;;2.85;1.65;;;;;;;;;;4999739;28;20213;-90
2023/09/17 09:32:45;;;;;;;3.13;1.77;;;;;;;;;;4994486;28;20201;-96
2023/09/17 09:35:12;;;;;;;2.38;1.80;;;;;;;;;;4993062;28;20202;-92
2023/09/17 09:37:40;;;;;;;1.90;1.70;;;;;;;;;;4995342;28;20414;-95
2023/09/17 09:40:08;;;;;;;3.95;2.15;;;;;;;;;;4997979;28;20205;-95
2023/09/17 09:42:36;;;;;;;2.90;2.08;;;;;;;;;;4980486;28;20326;-93
2023/09/17 09:45:03;;;;;;;3.08;1.90;;;;;;;;;;4982045;28;20271;-94
2023/09/17 09:47:31;;;;;;;3.28;2.58;;;;;;;;;;4987588;28;20194;-94
2023/09/17 09:50:04;;;;;;;4.90;2.60;;;;;;;;;;4990007;28;20206;-94
2023/09/17 09:52:32;;;;;;;4.55;2.70;;;;;;;;;;4996446;28;20198;-95
2023/09/17 09:54:59;;;;;;;3.60;2.83;;;;;;;;;;4995219;28;20206;-95
2023/09/17 09:57:27;;;;;;;4.05;2.70;;;;;;;;;;4995224;28;20673;-93
2023/09/17 09:59:55;;;;;;;4.22;3.10;;;;;;;;;;4998552;28;20221;-94
2023/09/17 10:02:23;;;;;;;3.60;2.80;;;;;;;;;;4996384;28;20194;-93
2023/09/17 10:04:51;;;;;;;6.57;5.38;;;;;;;;;;4995929;28;20225;-89
2023/09/17 10:07:19;;;;;;;4.72;3.10;;;;;;;;;;5002324;28;20628;-90
2023/09/17 10:09:47;;;;;;;3.47;2.72;;;;;;;;;;5001394;28;20229;-91
2023/09/17 10:12:15;;;;;;;4.75;2.80;;;;;;;;;;5004521;28;20288;-88
2023/09/17 10:14:45;;;;;;;7.57;2.92;;;;;;;;;;4999400;28;20676;-88
2023/09/17 10:17:14;;;;;;;6.82;3.50;;;;;;;;;;4999886;28;20197;-87
2023/09/17 10:19:42;;;;;;;6.80;3.28;;;;;;;;;;5000094;28;20190;-90
2023/09/17 10:22:10;;;;;;;5.82;3.33;;;;;;;;;;5000282;28;20220;-89
2023/09/17 10:24:40;;;;;;;3.60;2.95;;;;;;;;;;4999914;28;20422;-89
2023/09/17 10:27:08;;;;;;;4.97;3.05;;;;;;;;;;4979195;28;20775;-86
2023/09/17 10:29:36;;;;;;;6.40;3.17;;;;;;;;;;4992643;28;20205;-86
2023/09/17 10:32:04;;;;;;;4.60;3.42;;;;;;;;;;4998912;28;20289;-87
2023/09/17 10:34:33;;;;;;;4.13;3.58;;;;;;;;;;4999281;28;20185;-86
2023/09/17 10:37:01;;;;;;;5.70;3.00;;;;;;;;;;4997284;28;20201;-89
2023/09/17 10:39:28;;;;;;;3.20;2.63;;;;;;;;;;5000935;28;20237;-89
2023/09/17 10:41:57;;;;;;;5.72;3.08;;;;;;;;;;5008464;28;20224;-89
2023/09/17 10:44:25;;;;;;;5.00;3.67;;;;;;;;;;4998145;28;20264;-90
2023/09/17 10:46:54;;;;;;;4.95;3.50;;;;;;;;;;4999327;28;20205;-89
2023/09/17 10:49:22;;;;;;;5.53;4.32;;;;;;;;;;4999354;28;20245;-89
2023/09/17 10:51:49;;;;;;;4.05;3.58;;;;;;;;;;4999792;28;20205;-89
2023/09/17 10:54:17;;;;;;;3.00;2.70;;;;;;;;;;4995589;28;20257;-87
2023/09/17 10:56:45;;;;;;;4.45;2.70;;;;;;;;;;5000131;28;20273;-87
2023/09/17 10:59:21;;;;;;;2.58;2.20;;;;;;;;;;5003673;28;20204;-88
2023/09/17 11:01:49;;;;;;;3.25;2.65;;;;;;;;;;4998643;28;20225;-88
2023/09/17 11:04:18;;;;;;;3.38;2.88;;;;;;;;;;5004148;28;20200;-88
2023/09/17 11:06:47;;;;;;;4.80;3.80;;;;;;;;;;4998897;28;20197;-89
2023/09/17 11:09:15;;;;;;;4.78;3.00;;;;;;;;;;4999203;28;20273;-88
2023/09/17 11:11:42;;;;;;;4.38;2.60;;;;;;;;;;4998738;28;20236;-89
2023/09/17 11:14:09;;;;;;;2.90;2.53;;;;;;;;;;4998412;28;20296;-88
2023/09/17 11:16:38;;;;;;;4.28;2.05;;;;;;;;;;4995743;28;20210;-88
2023/09/17 11:19:06;;;;;;;2.72;2.13;;;;;;;;;;4992521;28;20237;-87
2023/09/17 11:21:35;;;;;;;3.38;2.15;;;;;;;;;;5014012;28;20208;-90
2023/09/17 11:24:06;;;;;;;4.35;2.45;;;;;;;;;;5019023;28;20173;-88
2023/09/17 11:26:33;;;;;;;3.25;2.22;;;;;;;;;;5007954;28;20826;-88
2023/09/17 11:29:01;;;;;;;4.50;2.88;;;;;;;;;;4996069;28;20289;-89
2023/09/17 11:31:28;;;;;;;4.53;2.70;;;;;;;;;;4996871;28;20209;-91
2023/09/17 11:33:57;;;;;;;5.65;2.78;;;;;;;;;;4996176;28;20293;-90
2023/09/17 11:36:25;;;;;;;4.57;3.17;;;;;;;;;;4998004;28;20650;-88
2023/09/17 11:38:53;;;;;;;3.92;3.03;;;;;;;;;;4996834;28;20206;-93
2023/09/17 11:41:28;;;;;;;6.80;3.30;;;;;;;;;;4995560;28;20203;-92
2023/09/17 11:43:55;;;;;;;7.57;3.47;;;;;;;;;;4997578;28;20566;-90
2023/09/17 11:46:22;;;;;;;7.18;3.65;;;;;;;;;;4995854;28;20324;-90
2023/09/17 11:48:49;;;;;;;4.97;3.67;;;;;;;;;;4996185;28;20193;-89
2023/09/17 11:51:22;;;;;;;6.32;3.90;;;;;;;;;;4995726;28;20225;-86
2023/09/17 11:53:50;;;;;;;5.45;3.97;;;;;;;;;;4996166;28;20264;-86
2023/09/17 11:56:19;;;;;;;6.78;3.95;;;;;;;;;;5006377;28;20213;-87
2023/09/17 11:58:46;;;;;;;8.10;4.47;;;;;;;;;;5009912;28;20209;-86
2023/09/17 12:01:14;;;;;;;5.45;4.28;;;;;;;;;;4991073;28;20226;-89
2023/09/17 12:03:41;;;;;;;5.88;4.18;;;;;;;;;;4981519;28;20390;-93
2023/09/17 12:06:09;;;;;;;8.88;5.25;;;;;;;;;;4976958;28;20317;-89
2023/09/17 12:08:37;;;;;;;6.57;4.40;;;;;;;;;;4979806;28;20237;-89
2023/09/17 12:11:13;;;;;;;5.90;4.43;;;;;;;;;;4983290;28;20198;-88
2023/09/17 12:13:41;;;;;;;5.82;4.25;;;;;;;;;;5015319;28;20204;-90
2023/09/17 12:16:08;;;;;;;6.35;4.97;;;;;;;;;;5008512;28;20632;-90
2023/09/17 12:18:35;;;;;;;6.40;5.07;;;;;;;;;;4979756;28;20229;-88
2023/09/17 12:21:09;;;;;;;6.60;4.28;;;;;;;;;;4987594;28;20284;-90
2023/09/17 12:23:54;;;;;;;6.80;4.60;;;;;;;;;;4990149;28;20579;-95
2023/09/17 12:29:38;;;;;;;6.63;4.70;;;;;;;;;;4979430;28;20209;-91
2023/09/17 12:32:07;;;;;;;5.50;4.50;;;;;;;;;;4997893;28;20220;-93
2023/09/17 12:34:36;;;;;;;8.35;5.35;;;;;;;;;;4996825;28;20190;-92
2023/09/17 12:37:05;;;;;;;6.63;5.10;;;;;;;;;;4994975;28;20285;-92
2023/09/17 12:39:34;;;;;;;6.05;5.28;;;;;;;;;;4993540;28;20568;-89
2023/09/17 12:42:01;;;;;;;6.22;4.65;;;;;;;;;;4984473;28;20225;-90
2023/09/17 12:44:29;;;;;;;9.32;5.00;;;;;;;;;;4991207;28;20668;-91
2023/09/17 12:46:57;;;;;;;6.70;4.90;;;;;;;;;;4996147;28;20269;-91
2023/09/17 12:49:24;;;;;;;6.55;4.90;;;;;;;;;;4996049;28;20206;-90
2023/09/17 12:51:52;;;;;;;9.15;5.30;;;;;;;;;;4995924;28;20221;-87
2023/09/17 12:54:21;;;;;;;6.90;5.05;;;;;;;;;;4994717;28;20245;-87
2023/09/17 12:56:52;;;;;;;6.82;5.07;;;;;;;;;;4994441;28;20665;-87
2023/09/17 12:59:27;;;;;;;7.28;5.22;;;;;;;;;;4994590;28;20252;-89
2023/09/17 13:01:54;;;;;;;7.93;5.20;;;;;;;;;;4996984;28;20219;-90
2023/09/17 13:04:32;;;;;;;12.02;5.20;;;;;;;;;;4997628;28;20207;-88
2023/09/17 13:07:00;;;;;;;6.03;5.32;;;;;;;;;;4997305;28;20253;-90
2023/09/17 13:09:28;;;;;;;7.88;5.05;;;;;;;;;;4997307;28;20225;-90
2023/09/17 13:11:57;;;;;;;6.95;5.22;;;;;;;;;;4996995;28;20273;-93
2023/09/17 13:14:25;;;;;;;7.60;5.20;;;;;;;;;;5000313;28;20253;-95
2023/09/17 13:16:53;;;;;;;7.20;4.90;;;;;;;;;;5000109;28;20202;-90
2023/09/17 13:19:21;;;;;;;5.97;5.05;;;;;;;;;;4984195;28;20198;-91
2023/09/17 13:21:49;;;;;;;6.35;4.85;;;;;;;;;;4985960;28;20866;-89
2023/09/17 13:24:17;;;;;;;8.25;5.38;;;;;;;;;;4983919;28;20288;-90
2023/09/17 13:26:44;;;;;;;10.93;5.53;;;;;;;;;;4989981;28;20316;-89
2023/09/17 13:29:13;;;;;;;7.32;5.57;;;;;;;;;;4991068;28;20284;-91
2023/09/17 13:31:41;;;;;;;9.02;5.60;;;;;;;;;;4989769;28;20703;-90
2023/09/17 13:34:10;;;;;;;7.38;5.57;;;;;;;;;;4984686;28;20212;-86
2023/09/17 13:36:37;;;;;;;8.52;5.30;;;;;;;;;;4989528;28;20249;-90
2023/09/17 13:39:05;;;;;;;6.82;5.47;;;;;;;;;;4990212;28;20613;-91
2023/09/17 13:41:32;;;;;;;6.70;5.72;;;;;;;;;;4986387;28;20288;-88
2023/09/17 13:43:59;;;;;;;7.53;5.68;;;;;;;;;;4986727;28;20268;-88
2023/09/17 13:46:30;;;;;;;6.50;5.28;;;;;;;;;;4984449;28;20264;-85
2023/09/17 13:48:58;;;;;;;6.82;5.22;;;;;;;;;;4987746;28;20201;-85
2023/09/17 13:51:25;;;;;;;8.98;5.28;;;;;;;;;;4988590;28;20217;-85
2023/09/17 13:53:52;;;;;;;7.22;5.00;;;;;;;;;;4988639;28;20277;-88
2023/09/17 13:56:19;;;;;;;7.05;5.38;;;;;;;;;;4983364;28;20268;-89
2023/09/17 13:58:47;;;;;;;9.23;5.70;;;;;;;;;;4981117;28;20219;-89
2023/09/17 14:01:14;;;;;;;8.00;5.82;;;;;;;;;;4989065;28;20660;-89
2023/09/17 14:03:43;;;;;;;6.88;5.43;;;;;;;;;;4989870;28;20212;-90
2023/09/17 14:06:10;;;;;;;7.78;5.80;;;;;;;;;;4989505;28;20229;-90
2023/09/17 14:08:37;;;;;;;8.95;5.78;;;;;;;;;;4989535;28;20915;-92
2023/09/17 14:11:04;;;;;;;7.13;6.00;;;;;;;;;;4987149;28;20249;-88
2023/09/17 14:13:33;;;;;;;8.57;5.50;;;;;;;;;;4964887;28;20288;-89
2023/09/17 14:16:00;;;;;;;9.73;5.43;;;;;;;;;;4987425;28;20240;-91
2023/09/17 14:18:28;;;;;;;7.88;6.13;;;;;;;;;;4986709;28;20212;-92
2023/09/17 14:20:56;;;;;;;7.32;5.82;;;;;;;;;;4992103;28;20329;-89
2023/09/17 14:23:24;;;;;;;5.97;5.00;;;;;;;;;;5007081;28;20182;-89
2023/09/17 14:25:51;;;;;;;6.25;5.20;;;;;;;;;;4984893;28;20253;-90
2023/09/17 14:28:18;;;;;;;9.55;5.95;;;;;;;;;;4973960;28;20268;-90
2023/09/17 14:30:46;;;;;;;11.20;5.72;;;;;;;;;;4982964;28;20276;-89
2023/09/17 14:33:15;;;;;;;9.73;5.60;;;;;;;;;;4992820;28;20202;-90
2023/09/17 14:35:42;;;;;;;9.65;5.47;;;;;;;;;;4992856;28;20268;-89
2023/09/17 14:38:11;;;;;;;8.80;5.75;;;;;;;;;;4991995;28;20248;-92
2023/09/17 14:40:38;;;;;;;8.73;5.30;;;;;;;;;;4991194;28;20319;-89
2023/09/17 14:43:05;;;;;;;5.72;5.10;;;;;;;;;;4992631;28;20265;-89
2023/09/17 14:45:33;;;;;;;8.18;5.53;;;;;;;;;;4992596;28;20304;-90
2023/09/17 14:48:00;;;;;;;9.27;5.50;;;;;;;;;;4992624;28;20232;-89
2023/09/17 14:50:27;;;;;;;6.20;5.03;;;;;;;;;;4992809;28;20284;-89
2023/09/17 14:52:55;;;;;;;10.38;5.57;;;;;;;;;;4994168;28;20667;-90